Time;durP1;ratioP1;P1;durP2;ratioP2;P2;SDS_P1;SDS_P2;PMS_P1;PMS_P2;Temp;Humidity;BMP_temperature;BMP_pressure;BME280_temperature;BME280_humidity;BME280_pressure;Samples;Min_cycle;Max_cycle;Signal;HPM_P1;HPM_P2
2021/12/09 00:01:14;;;;;;;10.88;5.18;;;0.90;99.90;;;;;;5056606;28;20222;-68
2021/12/09 00:03:41;;;;;;;7.15;4.47;;;0.90;99.90;;;;;;5058427;28;20114;-68
2021/12/09 00:06:10;;;;;;;5.60;4.43;;;0.90;99.90;;;;;;5069756;28;20052;-68
2021/12/09 00:08:37;;;;;;;7.95;4.57;;;0.90;99.90;;;;;;5069142;28;20094;-68
2021/12/09 00:11:07;;;;;;;8.10;4.80;;;0.90;99.90;;;;;;5071317;28;20063;-68
2021/12/09 00:13:33;;;;;;;9.32;4.75;;;0.80;99.90;;;;;;5071178;28;20047;-68
2021/12/09 00:15:59;;;;;;;6.03;4.35;;;0.80;99.90;;;;;;5068795;28;20048;-68
2021/12/09 00:18:25;;;;;;;7.57;4.93;;;0.80;99.90;;;;;;5070960;28;20799;-68
2021/12/09 00:20:51;;;;;;;8.20;4.32;;;1.10;99.90;;;;;;5069340;28;20052;-68
2021/12/09 00:23:17;;;;;;;8.50;4.40;;;0.80;99.90;;;;;;5069738;28;20040;-68
2021/12/09 00:25:43;;;;;;;9.68;5.10;;;0.70;99.90;;;;;;5070664;28;20482;-68
2021/12/09 00:28:09;;;;;;;12.45;5.32;;;0.80;99.90;;;;;;5069559;28;20045;-68
2021/12/09 00:30:35;;;;;;;6.35;4.82;;;0.90;99.90;;;;;;5068477;28;20044;-68
2021/12/09 00:33:05;;;;;;;7.63;4.63;;;0.80;99.90;;;;;;5070833;28;20127;-68
2021/12/09 00:35:41;;;;;;;15.77;5.72;;;0.80;99.90;;;;;;5070438;28;20048;-68
2021/12/09 00:38:09;;;;;;;8.65;5.10;;;0.80;99.90;;;;;;5070856;28;20063;-68
2021/12/09 00:40:35;;;;;;;11.45;4.95;;;0.70;99.90;;;;;;5069166;28;20495;-68
2021/12/09 00:43:02;;;;;;;5.80;4.30;;;1.00;99.90;;;;;;5068964;28;20052;-68
2021/12/09 00:45:28;;;;;;;8.43;5.05;;;0.90;99.90;;;;;;5069398;28;20052;-68
2021/12/09 00:47:54;;;;;;;9.48;5.10;;;0.70;99.90;;;;;;5070553;28;20044;-68
2021/12/09 00:50:21;;;;;;;10.90;5.22;;;0.70;99.90;;;;;;5068678;28;20814;-68
2021/12/09 00:52:48;;;;;;;8.23;4.97;;;0.70;99.90;;;;;;5068861;28;20060;-68
2021/12/09 00:55:15;;;;;;;10.85;5.60;;;0.70;99.90;;;;;;5069245;28;20049;-68
2021/12/09 00:57:42;;;;;;;8.85;5.13;;;0.70;99.90;;;;;;5068699;28;20475;-68
2021/12/09 01:00:15;;;;;;;10.27;5.10;;;0.70;99.90;;;;;;5070559;28;20059;-68
2021/12/09 01:02:40;;;;;;;10.93;5.55;;;1.00;99.90;;;;;;5068909;28;20057;-68
2021/12/09 01:05:08;;;;;;;11.13;5.80;;;0.70;99.90;;;;;;5069997;28;20051;-68
2021/12/09 01:07:34;;;;;;;11.40;5.43;;;0.70;99.90;;;;;;5070178;28;20036;-68
2021/12/09 01:10:00;;;;;;;9.60;6.13;;;0.70;99.90;;;;;;5069186;28;20048;-68
2021/12/09 01:12:26;;;;;;;8.75;5.47;;;0.70;99.90;;;;;;5068413;28;20048;-68
2021/12/09 01:14:52;;;;;;;7.38;5.22;;;0.60;99.90;;;;;;5068953;28;20128;-68
2021/12/09 01:17:18;;;;;;;10.50;6.03;;;0.70;99.90;;;;;;5070630;28;20151;-68
2021/12/09 01:19:44;;;;;;;15.32;6.25;;;0.70;99.90;;;;;;5068316;28;20044;-68
2021/12/09 01:22:10;;;;;;;7.93;4.80;;;0.70;99.90;;;;;;5069165;28;20048;-68
2021/12/09 01:24:35;;;;;;;8.80;5.55;;;0.70;99.90;;;;;;5068649;28;20170;-68
2021/12/09 01:27:01;;;;;;;11.48;5.82;;;0.70;99.90;;;;;;5068413;28;20131;-68
2021/12/09 01:29:40;;;;;;;12.20;6.32;;;0.70;99.90;;;;;;5070197;28;20108;-68
2021/12/09 01:32:08;;;;;;;9.55;5.78;;;0.70;99.90;;;;;;5068447;28;20395;-68
2021/12/09 01:34:36;;;;;;;13.68;6.03;;;0.70;99.90;;;;;;5072949;28;20052;-68
2021/12/09 01:37:05;;;;;;;6.78;5.18;;;0.60;99.90;;;;;;5072629;28;20063;-68
2021/12/09 01:39:31;;;;;;;10.57;6.18;;;0.60;99.90;;;;;;5071507;28;20045;-68
2021/12/09 01:41:58;;;;;;;14.68;6.90;;;0.60;99.90;;;;;;5073652;28;20075;-68
2021/12/09 01:44:26;;;;;;;9.32;6.03;;;0.60;99.90;;;;;;5074015;28;20060;-68
2021/12/09 01:46:52;;;;;;;11.25;6.60;;;0.60;99.90;;;;;;5072877;28;20098;-68
2021/12/09 01:49:18;;;;;;;9.40;6.35;;;0.60;99.90;;;;;;5072670;28;20063;-68
2021/12/09 01:51:46;;;;;;;14.63;7.15;;;0.60;99.90;;;;;;5073342;28;20059;-68
2021/12/09 01:54:12;;;;;;;7.97;6.20;;;0.50;99.90;;;;;;5071422;28;20048;-68
2021/12/09 01:56:38;;;;;;;13.75;7.10;;;0.60;99.90;;;;;;5073107;28;20509;-68
2021/12/09 01:59:05;;;;;;;13.75;6.72;;;0.50;99.90;;;;;;5073786;28;20044;-68
2021/12/09 02:01:32;;;;;;;10.32;6.22;;;0.50;99.90;;;;;;5071201;28;20048;-68
2021/12/09 02:03:58;;;;;;;10.23;6.55;;;0.50;99.90;;;;;;5072188;28;20049;-68
2021/12/09 02:06:25;;;;;;;11.80;5.40;;;0.50;99.90;;;;;;5073485;28;20044;-68
2021/12/09 02:08:50;;;;;;;15.00;6.55;;;0.50;99.90;;;;;;5072400;28;20411;-68
2021/12/09 02:11:16;;;;;;;12.48;6.70;;;0.50;99.90;;;;;;5073238;28;20053;-68
2021/12/09 02:13:43;;;;;;;16.52;7.15;;;0.50;99.90;;;;;;5072914;28;20395;-68
2021/12/09 02:16:10;;;;;;;7.40;6.05;;;0.50;99.90;;;;;;5071152;28;20075;-68
2021/12/09 02:18:36;;;;;;;11.32;6.95;;;0.60;99.90;;;;;;5071517;28;20097;-68
2021/12/09 02:21:07;;;;;;;9.73;6.28;;;0.40;99.90;;;;;;5073095;28;20411;-68
2021/12/09 02:23:34;;;;;;;14.70;7.40;;;0.40;99.90;;;;;;5071139;28;20052;-68
2021/12/09 02:25:59;;;;;;;8.80;6.35;;;0.40;99.90;;;;;;5072984;28;20052;-68
2021/12/09 02:28:26;;;;;;;11.23;7.53;;;0.40;99.90;;;;;;5070874;28;20059;-68
2021/12/09 02:30:51;;;;;;;9.23;7.03;;;0.30;99.90;;;;;;5071650;28;20491;-68
2021/12/09 02:33:17;;;;;;;8.65;6.45;;;0.60;99.90;;;;;;5072999;28;20141;-68
2021/12/09 02:35:43;;;;;;;16.75;7.57;;;0.30;99.90;;;;;;5068149;28;20041;-68
2021/12/09 02:38:09;;;;;;;12.63;7.95;;;0.30;99.90;;;;;;5063561;28;20041;-68
2021/12/09 02:40:35;;;;;;;8.25;6.25;;;0.30;99.90;;;;;;5059396;28;20063;-70
2021/12/09 02:43:01;;;;;;;11.57;8.00;;;0.30;99.90;;;;;;5050778;28;20045;-68
2021/12/09 02:45:27;;;;;;;14.32;6.93;;;0.30;99.90;;;;;;5050670;28;20040;-68
2021/12/09 02:47:53;;;;;;;15.82;7.75;;;0.20;99.90;;;;;;5050963;28;20094;-68
2021/12/09 02:50:18;;;;;;;12.50;7.60;;;0.20;99.90;;;;;;5051917;28;20460;-68
2021/12/09 02:52:47;;;;;;;10.15;6.45;;;0.20;99.90;;;;;;5054671;28;20056;-68
2021/12/09 02:55:13;;;;;;;13.77;7.13;;;0.20;99.90;;;;;;5059559;28;20600;-68
2021/12/09 02:57:39;;;;;;;11.73;7.90;;;0.20;99.90;;;;;;5069450;28;20453;-69
2021/12/09 03:00:08;;;;;;;12.40;7.88;;;0.20;99.90;;;;;;5052433;28;20049;-68
2021/12/09 03:02:34;;;;;;;11.70;6.63;;;0.20;99.90;;;;;;5050670;28;20049;-68
2021/12/09 03:05:02;;;;;;;11.48;6.40;;;0.20;99.90;;;;;;5050316;28;20207;-68
2021/12/09 03:07:33;;;;;;;10.20;8.27;;;0.20;99.90;;;;;;5052166;28;20049;-68
2021/12/09 03:10:13;;;;;;;12.52;7.43;;;0.20;99.90;;;;;;5050873;28;20053;-68
2021/12/09 03:12:41;;;;;;;10.55;7.97;;;0.20;99.90;;;;;;5051282;28;20045;-68
2021/12/09 03:15:07;;;;;;;10.02;7.05;;;0.20;99.90;;;;;;5051902;28;20077;-68
2021/12/09 03:17:33;;;;;;;16.50;8.93;;;0.10;99.90;;;;;;5049991;28;20514;-68
2021/12/09 03:19:59;;;;;;;12.02;7.60;;;0.10;99.90;;;;;;5051973;28;20147;-68
2021/12/09 03:22:25;;;;;;;12.63;8.52;;;0.20;99.90;;;;;;5050644;28;20478;-68
2021/12/09 03:24:51;;;;;;;12.25;8.00;;;0.10;99.90;;;;;;5051049;28;20040;-68
2021/12/09 03:27:17;;;;;;;9.77;6.82;;;0.70;99.90;;;;;;5050575;28;20087;-68
2021/12/09 03:29:43;;;;;;;13.05;7.32;;;0.10;99.90;;;;;;5050608;28;20080;-68
2021/12/09 03:32:11;;;;;;;11.93;7.00;;;0.10;99.90;;;;;;5049879;28;20476;-68
2021/12/09 03:34:39;;;;;;;12.68;7.65;;;0.10;99.90;;;;;;5049931;28;20482;-68
2021/12/09 03:37:10;;;;;;;13.18;7.70;;;0.00;99.90;;;;;;5051522;28;20106;-68
2021/12/09 03:39:39;;;;;;;11.18;7.32;;;0.00;99.90;;;;;;5050610;28;20128;-68
2021/12/09 03:42:06;;;;;;;13.07;7.20;;;0.00;99.90;;;;;;5051610;28;20079;-68
2021/12/09 03:44:32;;;;;;;11.48;7.45;;;0.00;99.90;;;;;;5050294;28;20055;-69
2021/12/09 03:47:01;;;;;;;11.73;7.22;;;0.00;99.90;;;;;;5050823;28;20048;-68
2021/12/09 03:49:27;;;;;;;10.98;7.65;;;-0.10;99.90;;;;;;5050313;28;20395;-68
2021/12/09 03:51:54;;;;;;;17.65;8.07;;;-0.10;99.90;;;;;;5051096;28;20048;-68
2021/12/09 03:54:20;;;;;;;14.10;8.52;;;-0.10;99.90;;;;;;5050626;28;20164;-68
2021/12/09 03:56:46;;;;;;;17.90;9.20;;;-0.10;99.90;;;;;;5048747;28;20106;-68
2021/12/09 03:59:12;;;;;;;9.93;7.07;;;0.00;99.90;;;;;;5051336;28;20040;-68
2021/12/09 04:01:39;;;;;;;14.05;9.23;;;0.00;99.90;;;;;;5050202;28;20055;-68
2021/12/09 04:04:05;;;;;;;17.23;7.70;;;-0.10;99.90;;;;;;5051317;28;20106;-69
2021/12/09 04:06:32;;;;;;;14.27;8.75;;;-0.10;99.90;;;;;;5049613;28;20048;-69
2021/12/09 04:08:58;;;;;;;13.55;9.00;;;-0.10;99.90;;;;;;5049263;28;20053;-68
2021/12/09 04:11:25;;;;;;;10.10;7.13;;;-0.10;99.90;;;;;;5049748;28;20492;-68
2021/12/09 04:13:51;;;;;;;12.32;8.00;;;-0.10;99.90;;;;;;5048932;28;20530;-68
2021/12/09 04:16:16;;;;;;;12.55;7.97;;;0.20;99.90;;;;;;5049716;28;20049;-68
2021/12/09 04:18:44;;;;;;;10.88;7.60;;;-0.10;99.90;;;;;;5050904;28;20079;-68
2021/12/09 04:21:10;;;;;;;16.63;8.15;;;-0.10;99.90;;;;;;5050299;28;20041;-68
2021/12/09 04:23:36;;;;;;;13.70;8.15;;;-0.10;99.90;;;;;;5049499;28;20048;-68
2021/12/09 04:26:02;;;;;;;14.73;8.65;;;-0.10;99.90;;;;;;5049553;28;20049;-68
2021/12/09 04:28:28;;;;;;;14.32;8.70;;;-0.10;99.90;;;;;;5050202;28;20071;-68
2021/12/09 04:30:54;;;;;;;17.15;8.07;;;0.90;99.90;;;;;;5051079;28;20040;-68
2021/12/09 04:33:19;;;;;;;11.15;8.23;;;-0.20;99.90;;;;;;5049551;28;20514;-68
2021/12/09 04:35:45;;;;;;;10.88;8.05;;;-0.20;99.90;;;;;;5049802;28;20055;-68
2021/12/09 04:38:11;;;;;;;12.27;8.23;;;-0.10;99.90;;;;;;5050801;28;20396;-68
2021/12/09 04:40:37;;;;;;;16.98;8.65;;;0.50;99.90;;;;;;5050552;28;20049;-68
2021/12/09 04:43:02;;;;;;;11.60;7.72;;;-0.20;99.90;;;;;;5048717;28;20060;-68
2021/12/09 04:45:30;;;;;;;12.52;7.45;;;-0.10;99.90;;;;;;5049745;28;20064;-68
2021/12/09 04:47:56;;;;;;;17.15;8.50;;;-0.10;99.90;;;;;;5050626;28;20384;-68
2021/12/09 04:50:22;;;;;;;15.55;7.93;;;-0.20;99.90;;;;;;5048680;28;20731;-69
2021/12/09 04:52:47;;;;;;;14.07;9.18;;;-0.10;99.90;;;;;;5048949;28;20061;-68
2021/12/09 04:55:13;;;;;;;13.68;7.88;;;-0.10;99.90;;;;;;5050578;28;20059;-68
2021/12/09 04:57:39;;;;;;;16.90;8.48;;;-0.20;99.90;;;;;;5049658;28;20041;-68
2021/12/09 05:00:09;;;;;;;12.80;8.57;;;-0.20;99.90;;;;;;5054159;28;20080;-68
2021/12/09 05:03:01;;;;;;;14.75;7.68;;;-0.10;99.90;;;;;;5058872;28;20135;-69
2021/12/09 05:05:31;;;;;;;10.13;7.88;;;-0.20;99.90;;;;;;5055502;28;20045;-68
2021/12/09 05:07:56;;;;;;;9.98;8.00;;;-0.20;99.90;;;;;;5050853;28;20128;-68
2021/12/09 05:10:22;;;;;;;15.98;8.15;;;-0.20;99.90;;;;;;5052275;28;20124;-68
2021/12/09 05:12:48;;;;;;;10.85;7.55;;;-0.20;99.90;;;;;;5052799;28;20049;-68
2021/12/09 05:15:13;;;;;;;11.65;7.43;;;0.00;99.90;;;;;;5053209;28;20091;-68
2021/12/09 05:17:39;;;;;;;13.00;7.60;;;0.00;99.90;;;;;;5053327;28;20553;-68
2021/12/09 05:20:06;;;;;;;15.50;9.00;;;-0.20;99.90;;;;;;5052938;28;20053;-68
2021/12/09 05:22:31;;;;;;;11.43;7.75;;;-0.20;99.90;;;;;;5053960;28;20415;-68
2021/12/09 05:24:58;;;;;;;16.45;7.82;;;-0.20;99.90;;;;;;5052200;28;20048;-68
2021/12/09 05:27:23;;;;;;;14.27;8.52;;;-0.20;99.90;;;;;;5054371;28;20124;-68
2021/12/09 05:30:04;;;;;;;16.38;8.85;;;-0.20;99.90;;;;;;5055580;28;20613;-68
2021/12/09 05:32:31;;;;;;;13.13;8.85;;;-0.20;99.90;;;;;;5059536;28;20049;-69
2021/12/09 05:34:57;;;;;;;21.30;9.35;;;-0.30;99.90;;;;;;5070548;28;20056;-68
2021/12/09 05:37:24;;;;;;;13.23;8.20;;;-0.20;99.90;;;;;;5069711;28;20055;-68
2021/12/09 05:39:52;;;;;;;13.88;7.32;;;-0.30;99.90;;;;;;5073089;28;20117;-68
2021/12/09 05:42:20;;;;;;;16.38;8.88;;;-0.30;99.90;;;;;;5062118;28;20052;-68
2021/12/09 05:44:47;;;;;;;16.02;8.10;;;-0.20;99.90;;;;;;5053634;28;20053;-68
2021/12/09 05:47:12;;;;;;;18.20;7.68;;;-0.30;99.90;;;;;;5053111;28;20689;-68
2021/12/09 05:49:41;;;;;;;11.65;8.45;;;-0.30;99.90;;;;;;5052343;28;20045;-69
2021/12/09 05:52:08;;;;;;;15.57;9.55;;;-0.30;99.90;;;;;;5060067;28;20044;-68
2021/12/09 05:54:35;;;;;;;11.38;7.90;;;-0.30;99.90;;;;;;5057271;28;20048;-68
2021/12/09 05:57:02;;;;;;;16.08;8.32;;;-0.30;99.90;;;;;;5072172;28;20052;-68
2021/12/09 05:59:27;;;;;;;13.35;7.80;;;-0.40;99.90;;;;;;5068482;28;20842;-68
2021/12/09 06:01:53;;;;;;;12.50;8.68;;;-0.30;99.90;;;;;;5054863;28;20056;-68
2021/12/09 06:04:21;;;;;;;12.07;6.95;;;-0.40;99.90;;;;;;5071291;28;20131;-68
2021/12/09 06:06:48;;;;;;;21.55;9.35;;;-0.40;99.90;;;;;;5054647;28;20041;-67
2021/12/09 06:09:13;;;;;;;16.27;8.07;;;-0.40;99.90;;;;;;5055795;28;20048;-68
2021/12/09 06:11:41;;;;;;;15.15;8.43;;;-0.40;99.90;;;;;;5065495;28;20052;-68
2021/12/09 06:14:07;;;;;;;13.43;7.38;;;-0.40;99.90;;;;;;5042680;28;20032;-67
2021/12/09 06:16:34;;;;;;;14.75;8.27;;;-0.40;99.90;;;;;;5068225;28;20059;-68
2021/12/09 06:19:01;;;;;;;14.07;7.82;;;-0.40;99.90;;;;;;5051191;28;20049;-67
2021/12/09 06:21:28;;;;;;;17.27;9.30;;;-0.40;99.90;;;;;;5051814;28;20569;-67
2021/12/09 06:23:54;;;;;;;15.48;7.70;;;-0.40;99.90;;;;;;5066795;28;20047;-67
2021/12/09 06:26:21;;;;;;;15.55;8.85;;;-0.50;99.90;;;;;;5047890;28;20406;-67
2021/12/09 06:28:46;;;;;;;14.15;8.27;;;-0.50;99.90;;;;;;5066681;28;20064;-67
2021/12/09 06:31:12;;;;;;;14.20;8.80;;;-0.30;99.90;;;;;;5059342;28;20475;-67
2021/12/09 06:33:38;;;;;;;21.52;9.40;;;-0.30;99.90;;;;;;5071690;28;20097;-67
2021/12/09 06:36:04;;;;;;;14.82;8.85;;;-0.40;99.90;;;;;;5063615;28;20052;-68
2021/12/09 06:38:30;;;;;;;14.50;8.70;;;-0.30;99.90;;;;;;5055541;28;20105;-68
2021/12/09 06:40:56;;;;;;;21.65;10.65;;;-0.20;99.90;;;;;;5070767;28;20521;-68
2021/12/09 06:43:22;;;;;;;21.95;8.98;;;-0.30;99.90;;;;;;5053067;28;20052;-68
2021/12/09 06:45:48;;;;;;;16.73;10.55;;;0.00;99.90;;;;;;5057853;28;20101;-68
2021/12/09 06:48:14;;;;;;;14.60;9.32;;;-0.20;99.90;;;;;;5047025;28;20061;-68
2021/12/09 06:50:40;;;;;;;16.27;9.65;;;-0.20;99.90;;;;;;5044993;28;20060;-68
2021/12/09 06:53:06;;;;;;;17.88;11.15;;;-0.20;99.90;;;;;;5064087;28;20061;-67
2021/12/09 06:55:31;;;;;;;16.08;10.43;;;-0.20;99.90;;;;;;5050093;28;20057;-67
2021/12/09 06:57:57;;;;;;;17.00;8.95;;;-0.20;99.90;;;;;;5048056;28;20049;-67
2021/12/09 07:00:29;;;;;;;15.60;8.63;;;-0.20;99.90;;;;;;5054393;28;20072;-67
2021/12/09 07:02:56;;;;;;;12.65;8.35;;;-0.20;99.90;;;;;;5042087;28;20090;-67
2021/12/09 07:05:23;;;;;;;11.68;8.27;;;-0.30;99.90;;;;;;5045682;28;20061;-68
2021/12/09 07:07:50;;;;;;;15.57;8.75;;;-0.20;99.90;;;;;;5031969;28;20049;-68
2021/12/09 07:10:17;;;;;;;16.05;9.02;;;-0.30;99.90;;;;;;5030589;28;20064;-67
2021/12/09 07:12:42;;;;;;;11.52;8.55;;;-0.20;99.90;;;;;;5032245;28;20049;-67
2021/12/09 07:15:10;;;;;;;14.60;8.75;;;-0.40;99.90;;;;;;5030953;28;20400;-67
2021/12/09 07:17:36;;;;;;;97.60;21.52;;;-0.30;99.90;;;;;;5031600;28;20151;-67
2021/12/09 07:20:06;;;;;;;15.75;8.27;;;-0.20;99.90;;;;;;5031376;28;20499;-67
2021/12/09 07:22:32;;;;;;;12.50;8.00;;;-0.40;99.90;;;;;;5032348;28;20056;-67
2021/12/09 07:24:58;;;;;;;12.20;8.30;;;-0.40;99.90;;;;;;5047766;28;20032;-67
2021/12/09 07:27:23;;;;;;;27.15;9.50;;;-0.40;99.90;;;;;;5044389;28;20054;-67
2021/12/09 07:29:49;;;;;;;11.93;8.85;;;-0.40;99.90;;;;;;5030797;28;20515;-68
2021/12/09 07:32:15;;;;;;;14.90;8.27;;;-0.50;99.90;;;;;;5039358;28;20086;-67
2021/12/09 07:34:40;;;;;;;12.02;8.43;;;-0.50;99.90;;;;;;5051018;28;20041;-68
2021/12/09 07:37:06;;;;;;;16.95;8.57;;;-0.60;99.90;;;;;;5052466;28;20048;-67
2021/12/09 07:39:33;;;;;;;12.30;8.65;;;-0.60;99.90;;;;;;5051445;28;20041;-67
2021/12/09 07:41:59;;;;;;;19.48;8.30;;;-0.60;99.90;;;;;;5053384;28;20534;-68
2021/12/09 07:44:27;;;;;;;11.35;7.65;;;-0.60;99.90;;;;;;5064693;28;20049;-68
2021/12/09 07:46:54;;;;;;;11.32;7.70;;;-0.70;99.90;;;;;;5051509;28;20045;-68
2021/12/09 07:49:20;;;;;;;12.27;8.18;;;-0.70;99.90;;;;;;5065039;28;20055;-67
2021/12/09 07:51:46;;;;;;;13.55;8.90;;;-0.70;99.90;;;;;;5044144;28;20491;-68
2021/12/09 07:54:11;;;;;;;14.73;8.13;;;-0.70;99.90;;;;;;5049922;28;20063;-68
2021/12/09 07:56:37;;;;;;;16.42;9.40;;;-0.70;99.90;;;;;;5051020;28;20132;-68
2021/12/09 07:59:03;;;;;;;16.35;8.93;;;-0.70;99.90;;;;;;5050411;28;20074;-67
2021/12/09 08:01:29;;;;;;;14.52;8.07;;;-0.60;99.90;;;;;;5051041;28;20057;-71
2021/12/09 08:03:55;;;;;;;18.98;9.93;;;-0.60;99.90;;;;;;5051352;28;20080;-71
2021/12/09 08:06:21;;;;;;;13.55;8.68;;;-0.70;99.90;;;;;;5050601;28;20407;-69
2021/12/09 08:08:46;;;;;;;18.13;9.25;;;-0.60;99.90;;;;;;5049692;28;20052;-73
2021/12/09 08:11:12;;;;;;;19.70;9.55;;;-0.60;99.90;;;;;;5051072;28;20040;-72
2021/12/09 08:13:38;;;;;;;19.27;10.85;;;-0.60;99.90;;;;;;5057206;28;20120;-71
2021/12/09 08:16:03;;;;;;;20.73;9.45;;;-0.70;99.90;;;;;;5071249;28;20045;-69
2021/12/09 08:18:33;;;;;;;18.48;9.95;;;-0.60;99.90;;;;;;5070864;28;20067;-69
2021/12/09 08:21:01;;;;;;;13.68;8.68;;;-0.60;99.90;;;;;;5068941;28;20056;-69
2021/12/09 08:23:28;;;;;;;19.65;9.65;;;-0.40;99.90;;;;;;5068512;28;20467;-70
2021/12/09 08:25:55;;;;;;;19.30;9.32;;;-0.50;99.90;;;;;;5051474;28;20403;-69
2021/12/09 08:28:21;;;;;;;19.67;10.25;;;-0.40;99.90;;;;;;5050911;28;20045;-69
2021/12/09 08:30:50;;;;;;;18.20;10.38;;;-0.40;99.90;;;;;;5048606;28;20118;-70
2021/12/09 08:33:21;;;;;;;19.90;9.25;;;-0.30;99.90;;;;;;5050140;28;20132;-70
2021/12/09 08:35:47;;;;;;;16.77;9.85;;;-0.30;99.90;;;;;;5050620;28;20051;-70
2021/12/09 08:38:14;;;;;;;22.42;9.77;;;-0.20;99.90;;;;;;5050556;28;20052;-69
2021/12/09 08:40:42;;;;;;;15.23;10.30;;;-0.20;99.90;;;;;;5051227;28;20077;-70
2021/12/09 08:43:08;;;;;;;14.80;9.70;;;-0.10;99.90;;;;;;5053056;28;20068;-70
2021/12/09 08:45:33;;;;;;;21.58;10.10;;;-0.10;99.90;;;;;;5056877;28;20514;-70
2021/12/09 08:47:59;;;;;;;15.48;9.30;;;0.20;99.90;;;;;;5057580;28;20045;-71
2021/12/09 08:50:26;;;;;;;18.42;10.05;;;-0.10;99.90;;;;;;5058227;28;20059;-70
2021/12/09 08:52:52;;;;;;;14.13;9.32;;;0.00;99.90;;;;;;5057624;28;20040;-70
2021/12/09 08:55:19;;;;;;;19.17;9.95;;;0.10;99.90;;;;;;5056041;28;20067;-70
2021/12/09 08:57:46;;;;;;;22.38;9.45;;;0.10;99.90;;;;;;5056874;28;20553;-70
2021/12/09 09:00:14;;;;;;;15.32;10.30;;;0.20;99.90;;;;;;5058240;28;20044;-70
2021/12/09 09:02:44;;;;;;;23.50;9.63;;;0.20;99.90;;;;;;5057107;28;20049;-70
2021/12/09 09:05:11;;;;;;;14.98;9.25;;;0.20;99.90;;;;;;5056720;28;20037;-70
2021/12/09 09:07:38;;;;;;;24.10;10.20;;;0.30;99.90;;;;;;5057671;28;20073;-70
2021/12/09 09:10:06;;;;;;;19.70;9.52;;;0.30;99.90;;;;;;5055938;28;20110;-70
2021/12/09 09:12:33;;;;;;;15.85;9.43;;;0.40;99.90;;;;;;5056587;28;20441;-70
2021/12/09 09:14:59;;;;;;;15.73;11.07;;;0.40;99.90;;;;;;5057767;28;20049;-70
2021/12/09 09:17:25;;;;;;;17.42;10.05;;;0.40;99.90;;;;;;5057199;28;20053;-70
2021/12/09 09:19:50;;;;;;;18.67;10.07;;;0.50;99.90;;;;;;5056283;28;20040;-70
2021/12/09 09:22:16;;;;;;;16.50;9.32;;;0.50;99.90;;;;;;5056580;28;20044;-70
2021/12/09 09:24:41;;;;;;;19.65;10.88;;;0.60;99.90;;;;;;5055751;28;20122;-70
2021/12/09 09:27:07;;;;;;;14.15;8.98;;;0.70;99.90;;;;;;5056867;28;20511;-70
2021/12/09 09:29:34;;;;;;;18.08;9.02;;;0.60;99.90;;;;;;5056195;28;20518;-70
2021/12/09 09:32:00;;;;;;;20.40;8.00;;;0.70;99.90;;;;;;5055973;28;20061;-70
2021/12/09 09:34:26;;;;;;;14.50;9.40;;;0.80;99.90;;;;;;5057832;28;20049;-70
2021/12/09 09:36:52;;;;;;;17.00;10.07;;;0.90;99.90;;;;;;5057361;28;20402;-70
2021/12/09 09:39:19;;;;;;;16.17;9.23;;;1.20;99.90;;;;;;5056951;28;20041;-70
2021/12/09 09:41:54;;;;;;;20.85;9.18;;;1.00;99.90;;;;;;5056439;28;20400;-70
2021/12/09 09:44:27;;;;;;;20.67;8.52;;;1.30;99.90;;;;;;5055867;28;20116;-70
2021/12/09 09:46:55;;;;;;;;;;;1.10;99.90;;;;;;5056871;28;20053;-70
2021/12/09 09:49:21;;;;;;;16.88;8.13;;;1.30;99.90;;;;;;5057572;28;19927;-70
2021/12/09 09:51:46;;;;;;;17.20;8.35;;;1.20;99.90;;;;;;5055209;28;20045;-70
2021/12/09 09:54:12;;;;;;;20.92;8.68;;;1.30;99.90;;;;;;5055448;28;20060;-70
2021/12/09 09:56:41;;;;;;;12.40;7.60;;;1.40;99.90;;;;;;5052743;28;20063;-70
2021/12/09 09:59:09;;;;;;;16.25;8.90;;;1.50;99.90;;;;;;5052367;28;20041;-69
2021/12/09 10:01:37;;;;;;;15.38;7.93;;;1.60;99.90;;;;;;5054081;28;20064;-70
2021/12/09 10:04:13;;;;;;;20.15;8.77;;;1.60;99.90;;;;;;5053170;28;20400;-70
2021/12/09 10:06:42;;;;;;;18.25;8.32;;;1.70;99.90;;;;;;5053217;28;20448;-70
2021/12/09 10:09:10;;;;;;;15.48;8.93;;;1.70;99.90;;;;;;5053220;28;20056;-71
2021/12/09 10:11:37;;;;;;;18.00;8.80;;;1.90;99.90;;;;;;5052556;28;20053;-70
2021/12/09 10:14:19;;;;;;;15.35;7.57;;;1.90;99.90;;;;;;5052246;28;20045;-70
2021/12/09 10:16:45;;;;;;;14.65;8.02;;;1.90;99.90;;;;;;5053671;28;20059;-70
2021/12/09 10:19:22;;;;;;;15.20;9.00;;;1.90;99.90;;;;;;5054001;28;20094;-70
2021/12/09 10:21:49;;;;;;;14.57;7.38;;;2.00;99.90;;;;;;5052069;28;20064;-70
2021/12/09 10:24:16;;;;;;;14.88;7.35;;;2.10;99.90;;;;;;5053907;28;20341;-70
2021/12/09 10:26:48;;;;;;;14.15;8.55;;;2.20;99.90;;;;;;5051738;28;20049;-70
2021/12/09 10:29:20;;;;;;;27.65;9.30;;;2.20;99.90;;;;;;5052614;28;20171;-70
2021/12/09 10:31:52;;;;;;;11.60;7.25;;;2.30;99.90;;;;;;5052161;28;20492;-70
2021/12/09 10:34:35;;;;;;;13.05;7.57;;;2.30;99.90;;;;;;5051785;28;20061;-70
2021/12/09 10:37:16;;;;;;;15.00;6.97;;;2.30;99.90;;;;;;5052398;28;20056;-70
2021/12/09 10:40:04;;;;;;;18.10;7.82;;;2.30;99.90;;;;;;5053571;28;20124;-70
2021/12/09 10:42:32;;;;;;;10.52;7.38;;;2.40;99.90;;;;;;5052738;28;20045;-71
2021/12/09 10:45:16;;;;;;;18.20;9.35;;;2.40;99.90;;;;;;5052526;28;20060;-70
2021/12/09 10:47:57;;;;;;;12.73;8.48;;;2.40;99.90;;;;;;5051298;28;20095;-70
2021/12/09 10:50:36;;;;;;;17.17;8.63;;;2.50;99.90;;;;;;5053500;28;20484;-70
2021/12/09 10:55:52;;;;;;;24.05;9.13;;;2.50;99.90;;;;;;5051158;28;20049;-70
2021/12/09 10:58:20;;;;;;;13.63;9.05;;;2.50;99.90;;;;;;5052023;28;20040;-70
2021/12/09 11:00:53;;;;;;;17.33;8.40;;;2.50;99.90;;;;;;5052941;28;20045;-70
2021/12/09 11:03:40;;;;;;;18.92;8.10;;;2.50;99.90;;;;;;5052785;28;20052;-70
2021/12/09 11:06:18;;;;;;;18.40;9.07;;;2.50;99.90;;;;;;5051274;28;20059;-70
2021/12/09 11:08:50;;;;;;;15.88;9.35;;;2.50;99.90;;;;;;5051146;28;20049;-70
2021/12/09 11:11:35;;;;;;;13.00;8.13;;;2.50;99.90;;;;;;5051817;28;20045;-70
2021/12/09 11:14:03;;;;;;;13.38;8.55;;;2.50;99.90;;;;;;5051952;28;20186;-70
2021/12/09 11:16:38;;;;;;;14.68;9.73;;;2.50;99.90;;;;;;5050881;28;20053;-71
2021/12/09 11:19:09;;;;;;;18.90;9.35;;;2.50;99.90;;;;;;5051523;28;20064;-69
2021/12/09 11:21:40;;;;;;;20.63;10.60;;;2.50;99.90;;;;;;5051514;28;20473;-70
2021/12/09 11:24:12;;;;;;;12.55;8.07;;;2.50;99.90;;;;;;5051052;28;20111;-70
2021/12/09 11:26:53;;;;;;;15.52;9.23;;;2.50;99.90;;;;;;5052519;28;20045;-70
2021/12/09 11:29:30;;;;;;;18.05;7.78;;;2.60;99.90;;;;;;5052611;28;20053;-70
2021/12/09 11:32:10;;;;;;;15.82;7.18;;;2.50;99.90;;;;;;5052061;28;20540;-70
2021/12/09 11:34:45;;;;;;;16.70;9.65;;;2.50;99.90;;;;;;5051087;28;20092;-70
2021/12/09 11:39:51;;;;;;;20.63;10.10;;;2.50;99.90;;;;;;5052111;28;20052;-70
2021/12/09 11:42:24;;;;;;;15.88;8.65;;;2.50;99.90;;;;;;5052508;28;20055;-70
2021/12/09 11:44:50;;;;;;;19.27;9.85;;;2.50;99.90;;;;;;5051522;28;20376;-70
2021/12/09 11:47:16;;;;;;;14.05;8.18;;;2.40;99.90;;;;;;5051142;28;20090;-70
2021/12/09 11:49:44;;;;;;;16.70;8.85;;;2.40;99.90;;;;;;5050706;28;20056;-70
2021/12/09 11:52:16;;;;;;;18.40;8.95;;;2.50;99.90;;;;;;5050361;28;20471;-70
2021/12/09 11:54:49;;;;;;;18.05;9.82;;;2.50;99.90;;;;;;5050563;28;20400;-70
2021/12/09 11:57:32;;;;;;;21.00;9.40;;;2.40;99.90;;;;;;5050774;28;20514;-70
2021/12/09 12:12:32;;;;;;;21.42;9.93;;;2.60;99.90;;;;;;5051252;28;20045;-70
2021/12/09 12:15:44;;;;;;;15.02;8.68;;;2.60;99.90;;;;;;5051834;28;20052;-70
2021/12/09 12:20:48;;;;;;;21.50;10.07;;;2.50;99.90;;;;;;5049673;28;20079;-69
2021/12/09 12:23:52;;;;;;;19.65;9.13;;;2.60;99.90;;;;;;5050528;28;20388;-69
2021/12/09 12:27:03;;;;;;;21.35;9.73;;;2.60;99.90;;;;;;5049603;28;20052;-70
2021/12/09 12:30:25;;;;;;;19.92;10.43;;;2.60;99.90;;;;;;5040692;28;20453;-69
2021/12/09 12:33:13;;;;;;;83.95;16.45;;;2.60;99.90;;;;;;5032431;28;20081;-70
2021/12/09 12:36:05;;;;;;;23.70;11.05;;;2.50;99.90;;;;;;5050089;28;20049;-70
2021/12/09 12:38:37;;;;;;;17.02;8.75;;;2.60;99.90;;;;;;5050087;28;20132;-70
2021/12/09 12:41:09;;;;;;;24.17;11.40;;;2.60;99.90;;;;;;5049614;28;20123;-69
2021/12/09 12:43:45;;;;;;;19.00;9.20;;;2.60;99.90;;;;;;5051254;28;20553;-70
2021/12/09 12:51:16;;;;;;;19.48;9.63;;;2.60;99.90;;;;;;5050179;28;20092;-70
2021/12/09 12:53:45;;;;;;;20.35;12.00;;;2.70;99.90;;;;;;5044065;28;20049;-69
2021/12/09 12:56:13;;;;;;;17.98;10.70;;;2.80;99.90;;;;;;5042106;28;20075;-70
2021/12/09 12:58:59;;;;;;;23.88;12.90;;;2.70;99.90;;;;;;5036475;28;20442;-70
2021/12/09 13:01:25;;;;;;;20.80;10.90;;;2.80;99.90;;;;;;5048754;28;20083;-70
2021/12/09 13:03:55;;;;;;;19.85;12.98;;;2.70;99.90;;;;;;5049824;28;20081;-70
2021/12/09 13:06:53;;;;;;;22.83;10.73;;;2.80;99.90;;;;;;5044874;28;20053;-69
2021/12/09 13:09:30;;;;;;;19.85;10.75;;;2.80;99.90;;;;;;5040758;28;20049;-69
2021/12/09 13:12:06;;;;;;;13.77;10.45;;;2.80;99.90;;;;;;5041651;28;20110;-69
2021/12/09 13:14:36;;;;;;;24.60;11.95;;;2.80;99.90;;;;;;5048385;28;20045;-68
2021/12/09 13:17:13;;;;;;;19.00;10.40;;;2.80;99.90;;;;;;5040774;28;20052;-69